Meteo Giornale » Osservazioni meteo Ungheria » Papa
ore: 19:45 - Osservazioni Meteo Papa
Lat. 47° 12' N Lon. 17° 30' E Alt. 145 metri s.l.m.
22 °C
Sereno
Temp. 24 Ore
15 °C
28 °C
Nord
5.5 Km/h
Dew point 13 °C
Umidità 56 %
Visibilità 10 Km
Il sole sorge alle ore 06:09
Il sole tramonta alle ore 19:30
| Data e Ora | Cielo e Fenomeni | T °C | DP °C | Um. % | Pres. hPa | Vis. km | Vento km/h | |
|---|---|---|---|---|---|---|---|---|
| Oggi h: 19:45 | Sereno | 22 | 13 | 56 | 1019 | 10 | N 5.5 | |
| Oggi h: 19:15 | Sereno | 23 | 12 | 49 | 1019 | 10 | N 5.5 | |
| Oggi h: 18:45 | Sereno | 26 | 11 | 39 | 1019 | 10 | N 5.5 | |
| Oggi h: 18:15 | Sereno | 26 | 10 | 36 | 1019 | 10 | N/NO 9.3 | |
| Oggi h: 17:45 | Sereno | 26 | 10 | 36 | 1019 | 10 | O/NO 9.3 | |
| Oggi h: 17:15 | Sereno | 27 | 10 | 34 | 1019 | 10 | NO 13 | |
| Oggi h: 16:45 | Sereno | 28 | 10 | 32 | 1019 | 10 | N/NO 14.8 | |
| Oggi h: 16:15 | Sereno | 28 | 10 | 32 | 1019 | 10 | O 16.7 | |
| Oggi h: 15:45 | Sereno | 26 | 11 | 39 | 1020 | 10 | NO 18.5 | |
| Oggi h: 15:15 | Sereno | 27 | 10 | 34 | 1020 | 10 | O/NO 18.5 | |
| Oggi h: 14:45 | Sereno | 26 | 11 | 39 | 1020 | 10 | N/NO 20.3 | |
| Oggi h: 14:15 | Sereno | 27 | 11 | 36 | 1020 | 10 | NO 22.2 | |
| Oggi h: 13:45 | Sereno | 26 | 11 | 39 | 1021 | 10 | N 7.4 | |
| Oggi h: 13:15 | Nuvoloso | 25 | 13 | 47 | 1021 | 10 | NO 18.5 | |
| Oggi h: 12:45 | Nuvoloso | 26 | 13 | 44 | 1021 | 10 | O/NO 18.5 | |
| Oggi h: 12:15 | Nuvoloso | 25 | 12 | 44 | 1021 | 10 | N/NO 27.8 | |
| Oggi h: 11:45 | Poco Nuvoloso | 25 | 12 | 44 | 1021 | 10 | N/NO 22.2 | |
| Oggi h: 11:15 | Poco Nuvoloso | 24 | 13 | 50 | 1021 | 10 | N/NO 22.2 | |
| Oggi h: 10:45 | Poco Nuvoloso | 24 | 13 | 50 | 1021 | 10 | N/NO 20.3 | |
| Oggi h: 10:15 | Poco Nuvoloso | 23 | 13 | 53 | 1021 | 10 | NO 20.3 | |
| Oggi h: 09:45 | Sereno | 22 | 14 | 60 | 1021 | 10 | NO 20.3 | |
| Oggi h: 09:15 | Sereno | 21 | 15 | 68 | 1021 | 10 | NO 16.7 | |
| Oggi h: 08:45 | Sereno | 20 | 15 | 72 | 1021 | 10 | NO 13 | |
| Oggi h: 08:15 | Sereno | 19 | 16 | 82 | 1021 | 10 | O 7.4 | |
| Oggi h: 07:15 | Sereno | 16 | 16 | 100 | 1020 | 10 | S/SO 7.4 | |
| Oggi h: 06:45 | Sereno | 16 | 15 | 93 | 1020 | 10 | S/SO 7.4 | |
| Oggi h: 06:15 | Nebbia | 15 | 15 | 100 | 1019 | 10 | N 3.7 | |
| Oggi h: 05:45 | Sereno | 16 | 15 | 93 | 1019 | 10 | N 5.5 | |
| Oggi h: 05:15 | Sereno | 16 | 16 | 100 | 1019 | 10 | N 5.5 | |
| Oggi h: 04:45 | Sereno | 16 | 16 | 100 | 1018 | 10 | N 3.7 | |
| Oggi h: 04:15 | Sereno | 16 | 16 | 100 | 1018 | 10 | N 5.5 | |
| Oggi h: 03:45 | Sereno | 17 | 16 | 93 | 1018 | 10 | N 1.8 | |
| Oggi h: 03:15 | Sereno | 17 | 16 | 93 | 1018 | 10 | N 1.8 | |
| Oggi h: 02:45 | Sereno | 17 | 16 | 93 | 1018 | 10 | E 7.4 | |
| Oggi h: 02:15 | Molto Nuvoloso | 17 | 16 | 93 | 1019 | 10 | NE 7.4 | |
| Oggi h: 01:45 | Pioggia | 17 | 16 | 93 | 1019 | 10 | N/NO 14.8 | |
| Oggi h: 01:15 | Temporale | 18 | 16 | 88 | 1020 | 8 | NO 24 | |
| Oggi h: 00:45 | Temporale | 19 | 15 | 77 | 1019 | 10 | NO 27.8 | |
| Oggi h: 00:15 | Molto Nuvoloso | 21 | 14 | 64 | 1017 | 10 | N/NO 38.8 | |
| Ieri h: 23:45 | Molto Nuvoloso | 22 | 15 | 64 | 1016 | 10 | N 16.7 | |
| Ieri h: 23:15 | Temporale nelle vicinanze | 23 | 13 | 53 | 1016 | 10 | N 16.7 | |
| Ieri h: 22:45 | Temporale | 24 | 13 | 50 | 1017 | 10 | O/NO 16.7 | |
| Ieri h: 22:15 | Pioggia | 22 | 13 | 56 | 1016 | 10 | N 3.7 | |
| Ieri h: 21:45 | Molto Nuvoloso | 23 | 13 | 53 | 1015 | 10 | N 5.5 | |
| Ieri h: 21:15 | Sereno | 24 | 12 | 47 | 1015 | 10 | N 0 | |
| Ieri h: 20:45 | Sereno | 24 | 12 | 47 | 1014 | 10 | E 7.4 | |



